Roswell, New Mexico
Current Conditions -  °F | °C
As of 11:51 AM on Tuesday 21 Oct 2014 (Local Time) from KROW Reporting Station
Overcast Overcast  
Wind Chill: 63°   Ceiling: 1300
Heat Index: 63°   Visibility: 10mi
Dew Point: 58°   Wind: 7mph
Humidity: 84%   Direction: 210°SSW
Pressure: 30.12"   Gusts: NA
Location:  33.39°N, 104.52°W
Report Text: KROW 211751Z 21006KT 10SM OVC013 17/14 A3012 RMK AO2 SLP158 60001 T01720144 10178 20139 58002
Loading
Personal Weather Stations






























Interactive Weather Map New forecast layout! Learn more

10-Day Weather Forecast

Advertisements
Track Severe Weather on mobile